Time;durP1;ratioP1;P1;durP2;ratioP2;P2;SDS_P1;SDS_P2;PMS_P1;PMS_P2;Temp;Humidity;BMP_temperature;BMP_pressure;BME280_temperature;BME280_humidity;BME280_pressure;Samples;Min_cycle;Max_cycle;Signal;HPM_P1;HPM_P2
2022/03/31 00:01:34;;;;;;;10.67;10.37;;;5.20;99.90;;;;;;5139157;27;20212;-80
2022/03/31 00:04:02;;;;;;;10.60;10.30;;;5.20;99.90;;;;;;5139314;27;20228;-80
2022/03/31 00:06:32;;;;;;;10.50;10.20;;;5.20;99.90;;;;;;5139308;27;20234;-80
2022/03/31 00:09:00;;;;;;;10.60;10.30;;;5.10;99.90;;;;;;5138993;27;20238;-80
2022/03/31 00:11:28;;;;;;;10.80;10.50;;;5.10;99.90;;;;;;5139677;27;20240;-80
2022/03/31 00:13:56;;;;;;;10.70;10.40;;;5.00;99.90;;;;;;5137961;27;20683;-79
2022/03/31 00:16:24;;;;;;;10.70;10.40;;;5.00;99.90;;;;;;5137553;27;20228;-79
2022/03/31 00:18:51;;;;;;;10.37;10.07;;;5.00;99.90;;;;;;5137635;27;20287;-79
2022/03/31 00:32:36;;;;;;;10.10;9.80;;;5.00;99.90;;;;;;5137582;27;20235;-80
2022/03/31 00:35:04;;;;;;;10.17;9.87;;;5.00;99.90;;;;;;5137604;27;20717;-80
2022/03/31 00:37:42;;;;;;;10.53;10.23;;;5.00;99.90;;;;;;5137489;27;20311;-80
2022/03/31 00:40:12;;;;;;;10.13;9.83;;;4.90;99.90;;;;;;5137298;27;20224;-80
2022/03/31 00:42:42;;;;;;;10.23;9.93;;;4.90;99.90;;;;;;5136722;27;20228;-79
2022/03/31 00:45:27;;;;;;;10.40;10.10;;;4.90;99.90;;;;;;5182577;22;20238;-89
2022/03/31 00:48:08;;;;;;;10.57;10.27;;;5.00;99.90;;;;;;5142331;27;20248;-89
2022/03/31 00:50:36;;;;;;;10.90;10.60;;;5.10;99.90;;;;;;5146297;27;20232;-88
2022/03/31 00:53:07;;;;;;;10.70;10.40;;;5.10;99.90;;;;;;5160585;27;20223;-89
2022/03/31 00:55:40;;;;;;;10.90;10.60;;;5.00;99.90;;;;;;5181055;27;20211;-89
2022/03/31 00:58:22;;;;;;;10.60;10.30;;;5.00;99.90;;;;;;5181435;27;20232;-89
2022/03/31 01:00:55;;;;;;;10.73;10.43;;;5.10;99.90;;;;;;5184224;27;20204;-89
2022/03/31 01:03:34;;;;;;;11.10;10.80;;;5.00;99.90;;;;;;5184717;27;20279;-89
2022/03/31 01:06:05;;;;;;;11.03;10.73;;;5.10;99.90;;;;;;5185024;27;20215;-89
2022/03/31 01:08:34;;;;;;;10.83;10.53;;;5.10;99.90;;;;;;5183261;27;20208;-89
2022/03/31 01:11:07;;;;;;;11.13;10.83;;;5.10;99.90;;;;;;5184874;27;20211;-89
2022/03/31 01:13:35;;;;;;;10.70;10.40;;;5.20;99.90;;;;;;5180362;27;20229;-89
2022/03/31 01:16:07;;;;;;;10.53;10.23;;;5.20;99.90;;;;;;5184178;27;20216;-89
2022/03/31 01:18:40;;;;;;;10.67;10.37;;;5.20;99.90;;;;;;5184891;27;20215;-88
2022/03/31 01:21:09;;;;;;;10.57;10.27;;;5.10;99.90;;;;;;5185207;27;20230;-88
2022/03/31 01:23:44;;;;;;;10.60;10.30;;;5.10;99.90;;;;;;5183697;27;20231;-88
2022/03/31 01:26:22;;;;;;;10.90;10.60;;;5.10;99.90;;;;;;5175625;27;20239;-89
2022/03/31 01:28:57;;;;;;;10.40;10.10;;;5.10;99.90;;;;;;5169200;27;20268;-88
2022/03/31 01:31:30;;;;;;;10.47;10.17;;;5.10;99.90;;;;;;5164629;27;20241;-88
2022/03/31 01:34:02;;;;;;;10.40;10.10;;;5.20;99.90;;;;;;5164472;27;20287;-88
2022/03/31 01:36:38;;;;;;;10.60;10.30;;;5.20;99.90;;;;;;5163063;27;20795;-88
2022/03/31 01:39:10;;;;;;;10.77;10.47;;;5.20;99.90;;;;;;5164490;27;20238;-88
2022/03/31 01:41:42;;;;;;;10.90;10.60;;;5.30;99.90;;;;;;5165232;27;20324;-88
2022/03/31 01:44:10;;;;;;;10.60;10.30;;;5.30;99.90;;;;;;5164974;27;20291;-88
2022/03/31 01:46:44;;;;;;;10.90;10.60;;;5.30;99.90;;;;;;5163954;27;20235;-89
2022/03/31 01:49:12;;;;;;;10.87;10.57;;;5.30;99.90;;;;;;5164165;27;20235;-88
2022/03/31 01:51:49;;;;;;;10.00;9.70;;;5.30;99.90;;;;;;5163868;27;20269;-89
2022/03/31 01:54:24;;;;;;;10.83;10.53;;;5.20;99.90;;;;;;5162915;27;20245;-88
2022/03/31 01:56:52;;;;;;;10.80;10.50;;;5.10;99.90;;;;;;5183208;27;20202;-88
2022/03/31 01:59:23;;;;;;;10.77;10.47;;;5.00;99.90;;;;;;5184170;27;20227;-88
2022/03/31 02:01:53;;;;;;;10.70;10.40;;;5.00;99.90;;;;;;5183888;27;20237;-89
2022/03/31 02:04:25;;;;;;;10.30;10.00;;;5.00;99.90;;;;;;5183732;27;20238;-88
2022/03/31 02:06:55;;;;;;;9.53;9.23;;;5.00;99.90;;;;;;5184022;27;20200;-88
2022/03/31 02:09:27;;;;;;;10.33;10.03;;;5.00;99.90;;;;;;5172467;27;20243;-88
2022/03/31 02:11:58;;;;;;;10.03;9.73;;;5.10;99.90;;;;;;5179828;27;20238;-88
2022/03/31 02:14:30;;;;;;;9.80;9.50;;;5.00;99.90;;;;;;5183692;27;20215;-89
2022/03/31 02:17:01;;;;;;;10.10;9.80;;;5.00;99.90;;;;;;5183897;27;20271;-88
2022/03/31 02:19:35;;;;;;;10.60;10.30;;;5.10;99.90;;;;;;5183809;27;20212;-87
2022/03/31 02:22:08;;;;;;;9.20;8.90;;;5.10;99.90;;;;;;5183986;27;20200;-88
2022/03/31 02:24:39;;;;;;;10.17;9.87;;;5.10;99.90;;;;;;5179672;27;20239;-88
2022/03/31 02:27:13;;;;;;;10.00;9.70;;;5.10;99.90;;;;;;5174582;27;20223;-88
2022/03/31 02:29:41;;;;;;;9.40;9.10;;;5.10;99.90;;;;;;5174307;27;20223;-88
2022/03/31 02:32:13;;;;;;;10.30;10.00;;;5.20;99.90;;;;;;5175622;27;20268;-88
2022/03/31 02:34:43;;;;;;;10.43;10.13;;;5.20;99.90;;;;;;5174189;27;20284;-88
2022/03/31 02:37:14;;;;;;;10.27;9.97;;;5.10;99.90;;;;;;5175489;27;20220;-88
2022/03/31 02:39:56;;;;;;;10.30;10.00;;;5.10;99.90;;;;;;5175072;27;20228;-88
2022/03/31 02:42:28;;;;;;;9.80;9.50;;;5.10;99.90;;;;;;5176033;27;20230;-88
2022/03/31 02:44:57;;;;;;;9.30;9.00;;;5.00;99.90;;;;;;5175905;27;20239;-88
2022/03/31 02:47:34;;;;;;;9.20;8.90;;;5.00;99.90;;;;;;5169016;27;20280;-88
2022/03/31 02:50:09;;;;;;;9.20;8.90;;;5.00;99.90;;;;;;5164198;27;20227;-88
2022/03/31 02:55:29;;;;;;;10.27;9.97;;;5.00;99.90;;;;;;5162811;27;20318;-88
2022/03/31 02:58:02;;;;;;;10.03;9.73;;;4.90;99.90;;;;;;5163223;27;20226;-88
2022/03/31 03:00:33;;;;;;;10.60;10.30;;;4.90;99.90;;;;;;5162555;27;20984;-88
2022/03/31 03:03:08;;;;;;;10.50;10.20;;;4.90;99.90;;;;;;5161708;27;20236;-88
2022/03/31 03:05:42;;;;;;;10.17;9.87;;;4.80;99.90;;;;;;5161525;27;20227;-88
2022/03/31 03:08:13;;;;;;;10.40;10.10;;;4.90;99.90;;;;;;5162075;27;20215;-88
2022/03/31 03:10:43;;;;;;;10.30;10.00;;;4.90;99.90;;;;;;5161790;27;20227;-88
2022/03/31 03:13:20;;;;;;;10.00;9.70;;;4.90;99.90;;;;;;5161429;27;20253;-88
2022/03/31 03:15:55;;;;;;;10.10;9.80;;;4.90;99.90;;;;;;5161108;27;20227;-88
2022/03/31 03:18:22;;;;;;;9.50;9.20;;;4.90;99.90;;;;;;5162309;27;20222;-88
2022/03/31 03:20:53;;;;;;;10.10;9.80;;;4.90;99.90;;;;;;5162508;27;20233;-87
2022/03/31 03:23:22;;;;;;;10.13;9.83;;;4.90;99.90;;;;;;5161270;27;20254;-88
2022/03/31 03:25:54;;;;;;;10.10;9.80;;;4.90;99.90;;;;;;5171279;27;20219;-88
2022/03/31 03:28:31;;;;;;;9.80;9.50;;;4.90;99.90;;;;;;5170769;27;20231;-88
2022/03/31 03:30:59;;;;;;;9.50;9.20;;;4.80;99.90;;;;;;5168284;27;20702;-88
2022/03/31 03:33:34;;;;;;;9.23;8.93;;;4.80;99.90;;;;;;5167436;27;20292;-87
2022/03/31 03:36:10;;;;;;;10.40;10.10;;;4.80;99.90;;;;;;5163886;27;20252;-88
2022/03/31 03:38:39;;;;;;;10.50;10.20;;;4.80;99.90;;;;;;5162725;27;20306;-88
2022/03/31 03:41:12;;;;;;;10.43;10.13;;;4.80;99.90;;;;;;5162305;27;20318;-88
2022/03/31 03:43:41;;;;;;;10.30;10.00;;;4.80;99.90;;;;;;5160265;27;20239;-88
2022/03/31 03:46:10;;;;;;;10.40;10.10;;;4.70;99.90;;;;;;5161694;27;20227;-88
2022/03/31 03:48:40;;;;;;;10.70;10.40;;;4.70;99.90;;;;;;5161009;27;20219;-88
2022/03/31 03:51:09;;;;;;;10.40;10.10;;;4.70;99.90;;;;;;5161136;27;20254;-88
2022/03/31 03:53:38;;;;;;;10.50;10.20;;;4.70;99.90;;;;;;5160556;27;20280;-88
2022/03/31 03:56:10;;;;;;;10.30;10.00;;;4.80;99.90;;;;;;5160958;27;20280;-88
2022/03/31 03:58:38;;;;;;;10.60;10.30;;;4.80;99.90;;;;;;5161551;27;20224;-89
2022/03/31 04:01:10;;;;;;;10.57;10.27;;;4.80;99.90;;;;;;5161451;27;20224;-88
2022/03/31 04:03:40;;;;;;;10.50;10.20;;;4.80;99.90;;;;;;5160710;27;20299;-88
2022/03/31 04:06:15;;;;;;;10.23;9.93;;;4.80;99.90;;;;;;5161245;27;20254;-90
2022/03/31 04:08:45;;;;;;;10.60;10.30;;;4.80;99.90;;;;;;5161403;27;20222;-88
2022/03/31 04:11:16;;;;;;;10.50;10.20;;;4.90;99.90;;;;;;5162268;27;20254;-88
2022/03/31 04:13:48;;;;;;;10.60;10.30;;;4.90;99.90;;;;;;5161850;27;20260;-88
2022/03/31 04:16:20;;;;;;;10.50;10.20;;;5.00;99.90;;;;;;5161112;27;20231;-87
2022/03/31 04:18:48;;;;;;;10.70;10.40;;;4.90;99.90;;;;;;5160955;27;20223;-88
2022/03/31 04:21:16;;;;;;;10.53;10.23;;;4.90;99.90;;;;;;5160809;27;20307;-89
2022/03/31 04:23:44;;;;;;;10.60;10.30;;;4.90;99.90;;;;;;5160366;27;20232;-88
2022/03/31 04:26:12;;;;;;;10.50;10.20;;;4.90;99.90;;;;;;5160138;27;20227;-88
2022/03/31 04:28:46;;;;;;;10.60;10.30;;;4.90;99.90;;;;;;5160082;27;20231;-88
2022/03/31 04:31:14;;;;;;;10.40;10.10;;;4.90;99.90;;;;;;5160064;27;20290;-88
2022/03/31 04:33:45;;;;;;;10.80;10.50;;;4.90;99.90;;;;;;5160447;27;20267;-88
2022/03/31 04:36:16;;;;;;;10.80;10.50;;;4.90;99.90;;;;;;5164753;27;20231;-88
2022/03/31 04:38:45;;;;;;;11.00;10.70;;;4.90;99.90;;;;;;5172724;27;20227;-89
2022/03/31 04:41:12;;;;;;;11.13;10.73;;;5.00;99.90;;;;;;5167273;27;20232;-89
2022/03/31 04:43:43;;;;;;;10.80;10.50;;;4.90;99.90;;;;;;5165517;27;20235;-89
2022/03/31 04:46:11;;;;;;;10.90;10.60;;;4.90;99.90;;;;;;5162831;27;20227;-89
2022/03/31 04:48:41;;;;;;;10.77;10.47;;;4.90;99.90;;;;;;5164210;27;20227;-89
2022/03/31 04:51:09;;;;;;;11.20;10.80;;;4.90;99.90;;;;;;5163912;27;20227;-89
2022/03/31 04:53:37;;;;;;;10.90;10.60;;;4.90;99.90;;;;;;5163589;27;20231;-88
2022/03/31 04:56:10;;;;;;;11.30;10.90;;;4.90;99.90;;;;;;5165980;27;20218;-89
2022/03/31 04:58:44;;;;;;;11.33;10.93;;;5.00;99.90;;;;;;5169058;27;20284;-88
2022/03/31 05:01:13;;;;;;;11.80;11.40;;;5.00;99.90;;;;;;5166655;27;20284;-89
2022/03/31 05:03:47;;;;;;;11.77;11.37;;;5.10;99.90;;;;;;5165093;27;20230;-89
2022/03/31 05:06:15;;;;;;;11.10;10.70;;;5.10;99.90;;;;;;5167212;27;20258;-89
2022/03/31 05:08:44;;;;;;;11.10;10.70;;;5.10;99.90;;;;;;5166124;27;20231;-88
2022/03/31 05:11:12;;;;;;;10.93;10.63;;;5.00;99.90;;;;;;5164387;27;20243;-89
2022/03/31 05:13:40;;;;;;;10.80;10.50;;;5.00;99.90;;;;;;5166712;27;20227;-89
2022/03/31 05:16:11;;;;;;;11.10;10.70;;;5.10;99.90;;;;;;5167815;27;20238;-89
2022/03/31 05:18:40;;;;;;;11.40;11.00;;;5.20;99.90;;;;;;5165208;27;20223;-88
2022/03/31 05:21:12;;;;;;;11.40;11.00;;;5.30;99.90;;;;;;5163748;27;20326;-89
2022/03/31 05:23:40;;;;;;;11.37;10.97;;;5.40;99.90;;;;;;5163193;27;20227;-89
2022/03/31 05:26:08;;;;;;;10.83;10.53;;;5.40;99.90;;;;;;5171644;27;20215;-89
2022/03/31 05:28:43;;;;;;;10.80;10.50;;;5.40;99.90;;;;;;5184512;27;20219;-89
2022/03/31 05:31:13;;;;;;;11.10;10.80;;;5.40;99.90;;;;;;5165051;27;20222;-89
2022/03/31 05:33:50;;;;;;;11.30;10.90;;;5.30;99.90;;;;;;5164468;27;20296;-88
2022/03/31 05:36:25;;;;;;;10.90;10.60;;;5.40;99.90;;;;;;5164761;27;20227;-89
2022/03/31 05:38:56;;;;;;;11.20;10.80;;;5.40;99.90;;;;;;5166219;27;20223;-89
2022/03/31 05:41:26;;;;;;;11.10;10.80;;;5.40;99.90;;;;;;5163408;27;20227;-89
2022/03/31 05:43:55;;;;;;;11.30;10.90;;;5.40;99.90;;;;;;5162885;27;20273;-89
2022/03/31 05:46:28;;;;;;;10.87;10.57;;;5.40;99.90;;;;;;5161958;27;20230;-89
2022/03/31 05:49:05;;;;;;;10.83;10.53;;;5.40;99.90;;;;;;5164133;27;20318;-89
2022/03/31 05:51:36;;;;;;;10.93;10.63;;;5.30;99.90;;;;;;5163115;27;20352;-89
2022/03/31 05:54:12;;;;;;;10.90;10.60;;;5.30;99.90;;;;;;5163392;27;20235;-89
2022/03/31 05:56:43;;;;;;;11.30;10.90;;;5.30;99.90;;;;;;5163677;27;20318;-88
2022/03/31 05:59:19;;;;;;;10.90;10.60;;;5.30;99.90;;;;;;5165547;27;20219;-89
2022/03/31 06:01:53;;;;;;;11.50;11.10;;;5.30;99.90;;;;;;5183768;27;20211;-89
2022/03/31 06:04:24;;;;;;;11.40;11.00;;;5.30;99.90;;;;;;5183219;27;20215;-89
2022/03/31 06:06:53;;;;;;;11.13;10.73;;;5.30;99.90;;;;;;5174431;27;20232;-89
2022/03/31 06:09:24;;;;;;;11.50;11.10;;;5.30;99.90;;;;;;5163871;27;20228;-89
2022/03/31 06:12:06;;;;;;;11.03;10.73;;;5.30;99.90;;;;;;5163003;27;20731;-88
2022/03/31 06:14:34;;;;;;;11.40;11.00;;;5.30;99.90;;;;;;5162407;27;20266;-89
2022/03/31 06:17:05;;;;;;;11.40;11.00;;;5.30;99.90;;;;;;5163707;27;21085;-89
2022/03/31 06:19:35;;;;;;;11.63;11.23;;;5.30;99.90;;;;;;5163011;27;20276;-89
2022/03/31 06:22:06;;;;;;;11.57;11.17;;;5.30;99.90;;;;;;5162412;27;20232;-89
2022/03/31 06:24:35;;;;;;;11.37;10.97;;;5.30;99.90;;;;;;5162993;27;20266;-89
2022/03/31 06:27:06;;;;;;;11.20;10.80;;;5.30;99.90;;;;;;5162673;27;20228;-89
2022/03/31 06:29:34;;;;;;;11.40;11.00;;;5.30;99.90;;;;;;5162819;27;20223;-89
2022/03/31 06:32:06;;;;;;;11.80;11.40;;;5.40;99.90;;;;;;5161857;27;20223;-89
2022/03/31 06:34:36;;;;;;;11.33;10.93;;;5.50;99.90;;;;;;5161153;27;20239;-89
2022/03/31 06:37:08;;;;;;;11.60;11.20;;;5.50;99.90;;;;;;5162689;27;20310;-89
2022/03/31 06:39:39;;;;;;;11.40;11.00;;;5.50;99.90;;;;;;5162596;27;20310;-89
2022/03/31 06:42:08;;;;;;;11.40;11.00;;;5.50;99.90;;;;;;5163887;27;20228;-89
2022/03/31 06:44:35;;;;;;;11.30;10.90;;;5.40;99.90;;;;;;5166948;22;20311;-80
2022/03/31 06:47:05;;;;;;;11.47;11.07;;;5.40;99.90;;;;;;5121026;28;20320;-81
2022/03/31 06:49:34;;;;;;;11.20;10.80;;;5.50;99.90;;;;;;5122697;28;20220;-81
2022/03/31 06:52:01;;;;;;;11.43;11.03;;;5.50;99.90;;;;;;5120377;28;20225;-82
2022/03/31 06:54:30;;;;;;;11.83;11.43;;;5.50;99.90;;;;;;5127378;27;20240;-81
2022/03/31 06:56:58;;;;;;;11.77;11.37;;;5.50;99.90;;;;;;5141306;27;20228;-81
2022/03/31 06:59:29;;;;;;;12.30;11.90;;;5.50;99.90;;;;;;5140944;27;20232;-81
2022/03/31 07:01:57;;;;;;;11.70;11.30;;;5.60;99.90;;;;;;5140690;27;20230;-81
2022/03/31 07:04:26;;;;;;;11.93;11.53;;;5.60;99.90;;;;;;5142724;27;20258;-81
2022/03/31 07:06:54;;;;;;;11.80;11.40;;;5.60;99.90;;;;;;5142044;27;20334;-81
2022/03/31 07:09:21;;;;;;;11.40;11.00;;;5.70;99.90;;;;;;5140557;27;20282;-81
2022/03/31 07:11:49;;;;;;;11.50;11.10;;;5.70;99.90;;;;;;5139703;27;20236;-81
2022/03/31 07:14:17;;;;;;;11.30;10.90;;;5.80;99.90;;;;;;5138963;27;20236;-81
2022/03/31 07:16:45;;;;;;;11.30;10.90;;;6.00;99.90;;;;;;5141137;27;20224;-81
2022/03/31 07:19:12;;;;;;;11.67;11.27;;;6.10;99.90;;;;;;5139836;27;20212;-81
2022/03/31 07:21:42;;;;;;;11.70;11.30;;;6.10;99.90;;;;;;5138616;27;20266;-81
2022/03/31 07:24:09;;;;;;;11.70;11.30;;;6.10;99.90;;;;;;5139479;27;20244;-81
2022/03/31 07:26:37;;;;;;;11.70;11.30;;;6.10;99.90;;;;;;5144334;27;20270;-81
2022/03/31 07:29:04;;;;;;;11.87;11.47;;;6.10;99.90;;;;;;5160733;27;20212;-81
2022/03/31 07:31:32;;;;;;;11.30;10.90;;;6.20;99.90;;;;;;5159744;27;20228;-81
2022/03/31 07:34:00;;;;;;;11.30;10.90;;;6.30;99.90;;;;;;5159303;27;20240;-81
2022/03/31 07:36:28;;;;;;;11.40;11.00;;;6.30;99.90;;;;;;5150691;27;20228;-81
2022/03/31 07:38:57;;;;;;;11.27;10.87;;;6.40;99.90;;;;;;5148530;27;20285;-81
2022/03/31 07:41:24;;;;;;;11.20;10.90;;;6.30;99.90;;;;;;5144568;27;20228;-80
2022/03/31 07:43:52;;;;;;;11.50;11.10;;;6.20;99.90;;;;;;5144813;27;20228;-81
2022/03/31 07:46:20;;;;;;;11.40;11.00;;;6.20;99.90;;;;;;5142583;27;20246;-81
2022/03/31 07:48:47;;;;;;;11.70;11.30;;;6.30;99.90;;;;;;5148708;27;20235;-80
2022/03/31 07:51:16;;;;;;;11.83;11.43;;;6.40;99.90;;;;;;5143692;27;20219;-81
2022/03/31 07:53:43;;;;;;;11.97;11.57;;;6.40;99.90;;;;;;5141819;27;20224;-80
2022/03/31 07:56:12;;;;;;;11.80;11.40;;;6.50;99.90;;;;;;5142204;27;20258;-81
2022/03/31 07:58:40;;;;;;;11.60;11.20;;;6.50;99.90;;;;;;5142472;27;20281;-81
2022/03/31 08:01:07;;;;;;;11.63;11.23;;;6.60;99.90;;;;;;5142861;27;20235;-81
2022/03/31 08:03:35;;;;;;;11.50;11.10;;;6.60;99.90;;;;;;5141921;27;20228;-81
2022/03/31 08:06:03;;;;;;;11.43;11.03;;;6.50;99.90;;;;;;5142377;27;20289;-81
2022/03/31 08:08:30;;;;;;;11.47;11.07;;;6.50;99.90;;;;;;5142416;27;20216;-81
2022/03/31 08:10:58;;;;;;;11.20;10.90;;;6.60;99.90;;;;;;5142519;27;20236;-81
2022/03/31 08:13:29;;;;;;;11.40;11.00;;;6.70;99.90;;;;;;5141809;27;20251;-81
2022/03/31 08:15:58;;;;;;;11.07;10.77;;;6.70;99.90;;;;;;5142144;27;20269;-81
2022/03/31 08:18:28;;;;;;;10.80;10.50;;;6.80;99.90;;;;;;5142468;27;20285;-80
2022/03/31 08:20:58;;;;;;;10.70;10.40;;;6.90;99.90;;;;;;5142512;27;20369;-81
2022/03/31 08:23:29;;;;;;;10.60;10.30;;;7.00;99.90;;;;;;5142485;27;20315;-81
2022/03/31 08:25:57;;;;;;;10.80;10.50;;;7.00;99.90;;;;;;5143575;27;20288;-78
2022/03/31 08:28:25;;;;;;;10.60;10.30;;;7.10;99.90;;;;;;5153266;27;20216;-78
2022/03/31 08:30:54;;;;;;;10.30;10.00;;;7.10;99.90;;;;;;5153935;27;20234;-77
2022/03/31 08:33:22;;;;;;;10.73;10.43;;;7.10;99.90;;;;;;5154692;27;20258;-77
2022/03/31 08:35:50;;;;;;;10.90;10.60;;;7.20;99.90;;;;;;5155497;27;20223;-77
2022/03/31 08:38:17;;;;;;;10.70;10.40;;;7.30;99.90;;;;;;5154451;27;20231;-78
2022/03/31 08:40:45;;;;;;;10.40;10.10;;;7.40;99.90;;;;;;5147229;27;20243;-79
2022/03/31 08:43:13;;;;;;;10.23;9.93;;;7.40;99.90;;;;;;5144191;27;20239;-79
2022/03/31 08:45:42;;;;;;;10.20;9.90;;;7.50;99.90;;;;;;5141003;27;20248;-81
2022/03/31 08:48:12;;;;;;;10.37;10.07;;;7.50;99.90;;;;;;5140558;27;20318;-81
2022/03/31 08:50:39;;;;;;;10.00;9.70;;;7.40;99.90;;;;;;5141799;27;20224;-81
2022/03/31 08:53:07;;;;;;;10.17;9.87;;;7.40;99.90;;;;;;5142262;27;20255;-81
2022/03/31 08:55:35;;;;;;;10.30;10.00;;;7.30;99.90;;;;;;5144783;27;20302;-80
2022/03/31 08:58:02;;;;;;;10.23;9.93;;;7.50;99.90;;;;;;5140635;27;20241;-81
2022/03/31 09:00:30;;;;;;;10.30;10.00;;;7.50;99.90;;;;;;5141691;27;20232;-81
2022/03/31 09:03:03;;;;;;;10.40;10.10;;;7.40;99.90;;;;;;5143002;27;20278;-81
2022/03/31 09:05:40;;;;;;;10.07;9.77;;;7.50;99.90;;;;;;5142243;27;20224;-81
2022/03/31 09:08:10;;;;;;;9.97;9.67;;;7.60;99.90;;;;;;5142743;27;20223;-80
2022/03/31 09:10:45;;;;;;;10.03;9.73;;;7.60;99.90;;;;;;5143450;27;20262;-81
2022/03/31 09:13:23;;;;;;;10.40;10.10;;;7.50;99.90;;;;;;5141962;27;20271;-81
2022/03/31 09:15:56;;;;;;;10.20;9.90;;;7.50;99.90;;;;;;5142461;27;20267;-81
2022/03/31 09:18:25;;;;;;;10.30;10.00;;;7.60;99.90;;;;;;5141202;27;20258;-81
2022/03/31 09:20:56;;;;;;;9.97;9.67;;;7.80;99.90;;;;;;5141919;27;20228;-81
2022/03/31 09:23:28;;;;;;;9.60;9.30;;;7.80;99.90;;;;;;5144588;27;20250;-81
2022/03/31 09:26:06;;;;;;;9.80;9.50;;;7.70;99.90;;;;;;5144653;27;20277;-81
2022/03/31 09:28:33;;;;;;;9.73;9.43;;;7.50;99.90;;;;;;5146392;27;20232;-81
2022/03/31 09:31:02;;;;;;;10.33;10.03;;;7.40;99.90;;;;;;5158386;27;20262;-80
2022/03/31 09:33:32;;;;;;;10.60;10.30;;;7.40;99.90;;;;;;5158999;27;20353;-81
2022/03/31 09:36:05;;;;;;;9.87;9.57;;;7.60;99.90;;;;;;5157783;27;20236;-81
2022/03/31 09:38:37;;;;;;;10.13;9.83;;;7.70;99.90;;;;;;5148564;27;20235;-81
2022/03/31 09:41:17;;;;;;;10.30;10.00;;;7.60;99.90;;;;;;5143387;27;20291;-81
2022/03/31 09:43:45;;;;;;;10.27;9.97;;;7.60;99.90;;;;;;5153016;27;20314;-81
2022/03/31 09:46:21;;;;;;;10.03;9.73;;;7.60;99.90;;;;;;5143198;27;20250;-81
2022/03/31 09:48:52;;;;;;;9.83;9.53;;;7.60;99.90;;;;;;5142527;27;20216;-81
2022/03/31 09:51:24;;;;;;;9.63;9.33;;;7.60;99.90;;;;;;5143397;27;20247;-81
2022/03/31 09:53:54;;;;;;;9.77;9.47;;;7.60;99.90;;;;;;5143049;27;20246;-81
2022/03/31 09:56:25;;;;;;;9.97;9.67;;;7.70;99.90;;;;;;5142702;27;20227;-81
2022/03/31 09:58:54;;;;;;;9.90;9.60;;;7.70;99.90;;;;;;5147646;27;20243;-81
2022/03/31 10:01:23;;;;;;;9.77;9.47;;;7.70;99.90;;;;;;5144536;27;20281;-81
2022/03/31 10:03:54;;;;;;;9.97;9.67;;;7.70;99.90;;;;;;5143521;27;20285;-81
2022/03/31 10:06:25;;;;;;;9.97;9.67;;;7.90;99.90;;;;;;5144658;27;20293;-81
2022/03/31 10:08:53;;;;;;;9.90;9.60;;;8.00;99.90;;;;;;5142762;27;20228;-81
2022/03/31 10:11:22;;;;;;;9.77;9.47;;;8.20;99.90;;;;;;5142950;27;20718;-81
2022/03/31 10:14:07;;;;;;;9.70;9.40;;;8.20;99.90;;;;;;5141760;27;20232;-81
2022/03/31 10:16:42;;;;;;;9.47;9.17;;;8.10;99.90;;;;;;5142630;27;20265;-81
2022/03/31 10:19:09;;;;;;;9.57;9.27;;;8.00;99.90;;;;;;5141659;27;20227;-81
2022/03/31 10:21:39;;;;;;;9.40;9.10;;;7.90;99.90;;;;;;5141922;27;20236;-81
2022/03/31 10:27:01;;;;;;;9.60;9.30;;;8.00;99.90;;;;;;5134335;27;20224;-81
2022/03/31 10:29:41;;;;;;;9.80;9.50;;;8.10;99.90;;;;;;5141833;27;20315;-81
2022/03/31 10:32:22;;;;;;;9.50;9.20;;;8.20;99.90;;;;;;5142371;27;20235;-80
2022/03/31 10:34:51;;;;;;;9.80;9.50;;;8.10;99.90;;;;;;5141618;27;20246;-81
2022/03/31 10:37:35;;;;;;;9.40;9.10;;;8.10;99.90;;;;;;5144480;27;20270;-81
2022/03/31 10:40:06;;;;;;;9.50;9.20;;;8.10;99.90;;;;;;5141892;27;20220;-81
2022/03/31 10:42:34;;;;;;;9.60;9.30;;;8.20;99.90;;;;;;5142066;27;20252;-81
2022/03/31 10:45:09;;;;;;;9.63;9.33;;;8.30;99.90;;;;;;5149629;27;20240;-81
2022/03/31 10:47:40;;;;;;;9.30;9.00;;;8.30;99.90;;;;;;5158348;27;20234;-82
2022/03/31 10:50:11;;;;;;;9.67;9.37;;;8.30;99.90;;;;;;5156712;27;20227;-81
2022/03/31 10:52:40;;;;;;;9.57;9.27;;;8.30;99.90;;;;;;5143984;27;20259;-81
2022/03/31 10:55:14;;;;;;;9.07;8.80;;;8.20;99.90;;;;;;5143444;27;20236;-81
2022/03/31 10:57:45;;;;;;;9.30;9.00;;;8.10;99.90;;;;;;5143641;27;20290;-81
2022/03/31 11:00:15;;;;;;;9.17;8.87;;;8.10;99.90;;;;;;5142694;27;20251;-81
2022/03/31 11:02:46;;;;;;;9.67;9.37;;;8.00;99.90;;;;;;5143158;27;20250;-81
2022/03/31 11:05:14;;;;;;;9.70;9.40;;;8.00;99.90;;;;;;5143257;27;20232;-81
2022/03/31 11:07:43;;;;;;;9.00;8.80;;;8.00;99.90;;;;;;5143018;27;20216;-81
2022/03/31 11:10:13;;;;;;;9.20;8.90;;;7.90;99.90;;;;;;5142460;27;20266;-80
2022/03/31 11:12:42;;;;;;;9.17;8.90;;;8.00;99.90;;;;;;5142983;27;20235;-81
2022/03/31 11:15:12;;;;;;;9.37;9.07;;;8.10;99.90;;;;;;5142111;27;20228;-81
2022/03/31 11:17:42;;;;;;;9.00;8.80;;;8.20;99.90;;;;;;5142434;27;20262;-81
2022/03/31 11:20:21;;;;;;;9.50;9.20;;;8.20;99.90;;;;;;5141282;27;20250;-81
2022/03/31 11:22:54;;;;;;;9.27;8.97;;;8.10;99.90;;;;;;5141442;27;20242;-81
2022/03/31 11:25:23;;;;;;;9.30;9.00;;;8.00;99.90;;;;;;5142130;27;20264;-81
2022/03/31 11:27:56;;;;;;;9.30;9.00;;;8.10;99.90;;;;;;5141911;27;20297;-81
2022/03/31 11:30:27;;;;;;;9.20;8.90;;;8.10;99.90;;;;;;5141611;27;20228;-81
2022/03/31 11:32:57;;;;;;;9.40;9.10;;;8.20;99.90;;;;;;5140728;27;20228;-81
2022/03/31 11:35:28;;;;;;;9.00;8.80;;;8.20;99.90;;;;;;5140859;27;20340;-81
2022/03/31 11:38:00;;;;;;;9.07;8.80;;;8.20;99.90;;;;;;5142582;27;20357;-81
2022/03/31 11:40:33;;;;;;;9.00;8.80;;;8.20;99.90;;;;;;5141838;27;20232;-81
2022/03/31 11:43:04;;;;;;;9.23;8.93;;;8.30;99.90;;;;;;5140716;27;20236;-81
2022/03/31 11:45:35;;;;;;;9.17;8.87;;;8.50;99.90;;;;;;5139940;27;20236;-81
2022/03/31 11:48:05;;;;;;;9.60;9.30;;;8.60;99.90;;;;;;5141101;27;20281;-81
2022/03/31 11:50:35;;;;;;;9.03;8.83;;;8.60;99.90;;;;;;5141921;27;20233;-81
2022/03/31 11:53:15;;;;;;;9.33;9.03;;;8.70;99.90;;;;;;5140987;27;20239;-81
2022/03/31 11:55:43;;;;;;;9.30;9.00;;;8.80;99.90;;;;;;5142892;27;20236;-81
2022/03/31 11:58:11;;;;;;;9.47;9.17;;;8.90;99.90;;;;;;5140748;27;20228;-81
2022/03/31 12:00:49;;;;;;;9.00;8.80;;;8.90;99.90;;;;;;5139935;27;20220;-80
2022/03/31 12:03:18;;;;;;;9.27;8.97;;;8.70;99.90;;;;;;5140821;27;20296;-81
2022/03/31 12:05:58;;;;;;;9.00;8.80;;;8.70;99.90;;;;;;5140750;27;20273;-81
2022/03/31 12:08:28;;;;;;;9.37;9.07;;;8.80;99.90;;;;;;5140643;27;20257;-81
2022/03/31 12:10:57;;;;;;;9.47;9.17;;;8.80;99.90;;;;;;5141909;27;20235;-81
2022/03/31 12:13:27;;;;;;;9.53;9.23;;;8.80;99.90;;;;;;5141220;27;20687;-81
2022/03/31 12:16:05;;;;;;;9.20;8.90;;;8.70;99.90;;;;;;5141356;27;20274;-81
2022/03/31 12:18:35;;;;;;;9.40;9.10;;;8.60;99.90;;;;;;5140934;27;20255;-81
2022/03/31 12:21:05;;;;;;;8.80;8.60;;;8.60;99.90;;;;;;5140457;27;20220;-81
2022/03/31 12:23:43;;;;;;;9.00;8.80;;;8.60;99.90;;;;;;5140584;27;20262;-81
2022/03/31 12:26:16;;;;;;;9.30;9.00;;;8.60;99.90;;;;;;5140259;27;20235;-81
2022/03/31 12:28:45;;;;;;;9.80;9.50;;;8.70;99.90;;;;;;5140655;27;20228;-81
2022/03/31 12:31:26;;;;;;;9.33;9.03;;;8.70;99.90;;;;;;5140369;27;20277;-81
2022/03/31 12:33:56;;;;;;;9.23;8.93;;;8.70;99.90;;;;;;5140324;27;20239;-81
2022/03/31 12:36:29;;;;;;;9.30;9.00;;;8.70;99.90;;;;;;5140057;27;20239;-81
2022/03/31 12:38:58;;;;;;;9.30;9.00;;;8.60;99.90;;;;;;5141261;27;20281;-81
2022/03/31 12:41:33;;;;;;;9.70;9.40;;;8.70;99.90;;;;;;5140129;27;20350;-81
2022/03/31 12:44:07;;;;;;;8.97;8.77;;;8.70;99.90;;;;;;5139077;27;20698;-81
2022/03/31 12:46:38;;;;;;;9.50;9.20;;;8.70;99.90;;;;;;5161244;22;20255;-84
2022/03/31 12:49:10;;;;;;;9.20;8.90;;;8.60;99.90;;;;;;5142693;27;20288;-84
2022/03/31 12:51:52;;;;;;;9.40;9.10;;;8.50;99.90;;;;;;5140988;27;20231;-84
2022/03/31 12:54:32;;;;;;;9.40;9.10;;;8.60;99.90;;;;;;5142469;27;20228;-84
2022/03/31 12:57:17;;;;;;;9.03;8.83;;;8.70;99.90;;;;;;5125339;27;20254;-84
2022/03/31 13:00:01;;;;;;;8.83;8.63;;;8.60;99.90;;;;;;5125885;27;20273;-83
2022/03/31 13:02:29;;;;;;;9.00;8.80;;;8.70;99.90;;;;;;5123953;27;20224;-84
2022/03/31 13:04:57;;;;;;;8.90;8.70;;;8.80;99.90;;;;;;5123618;27;20240;-84
2022/03/31 13:07:28;;;;;;;8.90;8.70;;;8.80;99.90;;;;;;5124075;27;20240;-85
2022/03/31 13:10:01;;;;;;;9.00;8.80;;;8.80;99.90;;;;;;5123261;28;20233;-84
2022/03/31 13:12:34;;;;;;;9.07;8.87;;;8.80;99.90;;;;;;5124348;27;20213;-84
2022/03/31 13:15:05;;;;;;;8.90;8.70;;;8.90;99.90;;;;;;5124770;27;20232;-84
2022/03/31 13:17:34;;;;;;;8.53;8.33;;;9.10;99.90;;;;;;5123412;27;20235;-84
2022/03/31 13:20:06;;;;;;;9.10;8.80;;;9.20;99.90;;;;;;5123758;27;20233;-84
2022/03/31 13:22:44;;;;;;;9.27;8.97;;;9.20;99.90;;;;;;5131607;27;20236;-82